sensor_id;sensor_type;location;lat;lon;timestamp;P1;durP1;ratioP1;P2;durP2;ratioP2
2538;SDS011;1280;49.760;9.664;2023-02-22T00:00:44;28.35;;;18.55;;
2538;SDS011;1280;49.760;9.664;2023-02-22T00:03:16;30.33;;;18.20;;
2538;SDS011;1280;49.760;9.664;2023-02-22T00:05:53;37.70;;;19.60;;
2538;SDS011;1280;49.760;9.664;2023-02-22T00:08:24;37.03;;;19.05;;
2538;SDS011;1280;49.760;9.664;2023-02-22T00:10:55;29.77;;;18.75;;
2538;SDS011;1280;49.760;9.664;2023-02-22T00:13:25;32.67;;;19.33;;
2538;SDS011;1280;49.760;9.664;2023-02-22T00:15:55;36.65;;;21.83;;
2538;SDS011;1280;49.760;9.664;2023-02-22T00:18:23;54.42;;;28.55;;
2538;SDS011;1280;49.760;9.664;2023-02-22T00:20:53;56.75;;;29.55;;
2538;SDS011;1280;49.760;9.664;2023-02-22T00:23:21;38.67;;;20.02;;
2538;SDS011;1280;49.760;9.664;2023-02-22T00:25:51;28.47;;;18.10;;
2538;SDS011;1280;49.760;9.664;2023-02-22T00:28:19;25.17;;;14.40;;
2538;SDS011;1280;49.760;9.664;2023-02-22T00:30:51;41.80;;;21.95;;
2538;SDS011;1280;49.760;9.664;2023-02-22T00:33:20;48.80;;;27.70;;
2538;SDS011;1280;49.760;9.664;2023-02-22T00:35:48;36.35;;;20.38;;
2538;SDS011;1280;49.760;9.664;2023-02-22T00:38:17;22.13;;;14.25;;
2538;SDS011;1280;49.760;9.664;2023-02-22T00:40:45;22.00;;;14.85;;
2538;SDS011;1280;49.760;9.664;2023-02-22T00:43:13;28.30;;;16.85;;
2538;SDS011;1280;49.760;9.664;2023-02-22T00:45:42;43.28;;;22.33;;
2538;SDS011;1280;49.760;9.664;2023-02-22T00:48:11;33.58;;;19.75;;
2538;SDS011;1280;49.760;9.664;2023-02-22T00:50:39;29.30;;;17.80;;
2538;SDS011;1280;49.760;9.664;2023-02-22T00:53:07;30.08;;;17.73;;
2538;SDS011;1280;49.760;9.664;2023-02-22T00:55:36;21.88;;;14.73;;
2538;SDS011;1280;49.760;9.664;2023-02-22T00:58:04;23.70;;;15.35;;
2538;SDS011;1280;49.760;9.664;2023-02-22T01:00:34;23.33;;;15.27;;
2538;SDS011;1280;49.760;9.664;2023-02-22T01:03:04;22.75;;;15.18;;
2538;SDS011;1280;49.760;9.664;2023-02-22T01:05:34;26.52;;;16.25;;
2538;SDS011;1280;49.760;9.664;2023-02-22T01:08:05;31.33;;;17.38;;
2538;SDS011;1280;49.760;9.664;2023-02-22T01:10:35;27.45;;;15.80;;
2538;SDS011;1280;49.760;9.664;2023-02-22T01:13:05;70.57;;;33.95;;
2538;SDS011;1280;49.760;9.664;2023-02-22T01:15:37;38.67;;;21.60;;
2538;SDS011;1280;49.760;9.664;2023-02-22T01:18:07;38.25;;;23.17;;
2538;SDS011;1280;49.760;9.664;2023-02-22T01:20:39;27.77;;;16.80;;
2538;SDS011;1280;49.760;9.664;2023-02-22T01:23:07;29.77;;;17.00;;
2538;SDS011;1280;49.760;9.664;2023-02-22T01:25:36;41.58;;;21.20;;
2538;SDS011;1280;49.760;9.664;2023-02-22T01:28:05;51.03;;;20.58;;
2538;SDS011;1280;49.760;9.664;2023-02-22T01:30:34;37.40;;;19.45;;
2538;SDS011;1280;49.760;9.664;2023-02-22T01:33:03;38.17;;;20.67;;
2538;SDS011;1280;49.760;9.664;2023-02-22T01:35:35;34.53;;;18.75;;
2538;SDS011;1280;49.760;9.664;2023-02-22T01:38:07;71.00;;;23.67;;
2538;SDS011;1280;49.760;9.664;2023-02-22T01:40:39;56.30;;;18.00;;
2538;SDS011;1280;49.760;9.664;2023-02-22T01:43:14;24.60;;;13.77;;
2538;SDS011;1280;49.760;9.664;2023-02-22T01:45:52;44.00;;;17.63;;
2538;SDS011;1280;49.760;9.664;2023-02-22T01:48:24;28.92;;;15.45;;
2538;SDS011;1280;49.760;9.664;2023-02-22T01:50:57;32.92;;;14.35;;
2538;SDS011;1280;49.760;9.664;2023-02-22T01:53:33;24.90;;;14.32;;
2538;SDS011;1280;49.760;9.664;2023-02-22T01:56:05;35.10;;;14.20;;
2538;SDS011;1280;49.760;9.664;2023-02-22T01:58:35;46.42;;;27.23;;
2538;SDS011;1280;49.760;9.664;2023-02-22T02:01:06;46.58;;;22.13;;
2538;SDS011;1280;49.760;9.664;2023-02-22T02:03:36;39.78;;;16.40;;
2538;SDS011;1280;49.760;9.664;2023-02-22T02:06:07;69.10;;;15.50;;
2538;SDS011;1280;49.760;9.664;2023-02-22T02:08:40;87.35;;;16.58;;
2538;SDS011;1280;49.760;9.664;2023-02-22T02:11:15;92.68;;;17.98;;
2538;SDS011;1280;49.760;9.664;2023-02-22T02:13:46;79.43;;;18.25;;
2538;SDS011;1280;49.760;9.664;2023-02-22T02:16:16;54.13;;;17.25;;
2538;SDS011;1280;49.760;9.664;2023-02-22T02:18:47;81.57;;;16.80;;
2538;SDS011;1280;49.760;9.664;2023-02-22T02:21:30;91.03;;;19.27;;
2538;SDS011;1280;49.760;9.664;2023-02-22T02:27:55;45.25;;;17.40;;
2538;SDS011;1280;49.760;9.664;2023-02-22T02:30:42;41.42;;;14.95;;
2538;SDS011;1280;49.760;9.664;2023-02-22T02:33:24;81.00;;;17.08;;
2538;SDS011;1280;49.760;9.664;2023-02-22T02:36:00;52.10;;;14.98;;
2538;SDS011;1280;49.760;9.664;2023-02-22T02:38:33;31.67;;;16.13;;
2538;SDS011;1280;49.760;9.664;2023-02-22T02:41:07;43.55;;;18.65;;
2538;SDS011;1280;49.760;9.664;2023-02-22T02:43:40;40.97;;;15.45;;
2538;SDS011;1280;49.760;9.664;2023-02-22T02:46:13;45.78;;;14.60;;
2538;SDS011;1280;49.760;9.664;2023-02-22T02:48:48;22.58;;;13.65;;
2538;SDS011;1280;49.760;9.664;2023-02-22T02:51:22;19.88;;;12.65;;
2538;SDS011;1280;49.760;9.664;2023-02-22T02:53:57;29.25;;;13.15;;
2538;SDS011;1280;49.760;9.664;2023-02-22T02:56:27;27.25;;;14.63;;
2538;SDS011;1280;49.760;9.664;2023-02-22T02:58:56;25.95;;;13.77;;
2538;SDS011;1280;49.760;9.664;2023-02-22T03:01:29;23.17;;;12.23;;
2538;SDS011;1280;49.760;9.664;2023-02-22T03:04:20;17.60;;;11.60;;
2538;SDS011;1280;49.760;9.664;2023-02-22T03:10:09;17.40;;;11.85;;
2538;SDS011;1280;49.760;9.664;2023-02-22T03:12:48;18.02;;;11.60;;
2538;SDS011;1280;49.760;9.664;2023-02-22T03:15:28;17.25;;;10.73;;
2538;SDS011;1280;49.760;9.664;2023-02-22T03:18:06;28.02;;;13.15;;
2538;SDS011;1280;49.760;9.664;2023-02-22T03:20:45;27.63;;;15.82;;
2538;SDS011;1280;49.760;9.664;2023-02-22T03:23:21;34.45;;;15.75;;
2538;SDS011;1280;49.760;9.664;2023-02-22T03:25:57;28.65;;;15.63;;
2538;SDS011;1280;49.760;9.664;2023-02-22T03:28:31;22.65;;;12.40;;
2538;SDS011;1280;49.760;9.664;2023-02-22T03:31:02;18.40;;;11.75;;
2538;SDS011;1280;49.760;9.664;2023-02-22T03:33:37;18.30;;;11.15;;
2538;SDS011;1280;49.760;9.664;2023-02-22T03:36:10;20.13;;;11.70;;
2538;SDS011;1280;49.760;9.664;2023-02-22T03:38:42;18.40;;;11.90;;
2538;SDS011;1280;49.760;9.664;2023-02-22T03:41:13;20.63;;;12.35;;
2538;SDS011;1280;49.760;9.664;2023-02-22T03:43:46;16.55;;;11.13;;
2538;SDS011;1280;49.760;9.664;2023-02-22T03:46:17;17.52;;;11.70;;
2538;SDS011;1280;49.760;9.664;2023-02-22T03:48:47;21.90;;;13.60;;
2538;SDS011;1280;49.760;9.664;2023-02-22T03:51:21;31.75;;;12.32;;
2538;SDS011;1280;49.760;9.664;2023-02-22T03:53:56;18.65;;;12.93;;
2538;SDS011;1280;49.760;9.664;2023-02-22T03:56:29;21.02;;;13.45;;
2538;SDS011;1280;49.760;9.664;2023-02-22T03:59:01;27.80;;;13.18;;
2538;SDS011;1280;49.760;9.664;2023-02-22T04:01:33;17.30;;;12.07;;
2538;SDS011;1280;49.760;9.664;2023-02-22T04:04:02;27.83;;;13.63;;
2538;SDS011;1280;49.760;9.664;2023-02-22T04:06:32;17.95;;;12.63;;
2538;SDS011;1280;49.760;9.664;2023-02-22T04:09:02;23.33;;;13.00;;
2538;SDS011;1280;49.760;9.664;2023-02-22T04:11:31;24.58;;;13.32;;
2538;SDS011;1280;49.760;9.664;2023-02-22T04:13:58;49.63;;;14.45;;
2538;SDS011;1280;49.760;9.664;2023-02-22T04:16:27;26.23;;;13.50;;
2538;SDS011;1280;49.760;9.664;2023-02-22T04:18:55;36.22;;;13.85;;
2538;SDS011;1280;49.760;9.664;2023-02-22T04:21:22;18.75;;;12.60;;
2538;SDS011;1280;49.760;9.664;2023-02-22T04:23:52;16.77;;;12.48;;
2538;SDS011;1280;49.760;9.664;2023-02-22T04:26:20;19.73;;;13.10;;
2538;SDS011;1280;49.760;9.664;2023-02-22T04:28:53;17.27;;;12.35;;
2538;SDS011;1280;49.760;9.664;2023-02-22T04:31:23;29.38;;;12.45;;
2538;SDS011;1280;49.760;9.664;2023-02-22T04:33:52;19.70;;;11.82;;
2538;SDS011;1280;49.760;9.664;2023-02-22T04:36:25;16.35;;;11.95;;
2538;SDS011;1280;49.760;9.664;2023-02-22T04:38:54;16.88;;;12.90;;
2538;SDS011;1280;49.760;9.664;2023-02-22T04:41:22;20.13;;;12.88;;
2538;SDS011;1280;49.760;9.664;2023-02-22T04:43:51;19.63;;;13.43;;
2538;SDS011;1280;49.760;9.664;2023-02-22T04:46:21;17.75;;;11.88;;
2538;SDS011;1280;49.760;9.664;2023-02-22T04:48:51;18.00;;;11.82;;
2538;SDS011;1280;49.760;9.664;2023-02-22T04:51:23;25.20;;;11.93;;
2538;SDS011;1280;49.760;9.664;2023-02-22T04:54:05;15.52;;;11.38;;
2538;SDS011;1280;49.760;9.664;2023-02-22T04:56:35;18.73;;;12.25;;
2538;SDS011;1280;49.760;9.664;2023-02-22T04:59:04;15.38;;;11.45;;
2538;SDS011;1280;49.760;9.664;2023-02-22T05:01:33;29.75;;;12.10;;
2538;SDS011;1280;49.760;9.664;2023-02-22T05:04:02;25.50;;;11.52;;
2538;SDS011;1280;49.760;9.664;2023-02-22T05:06:30;22.55;;;13.93;;
2538;SDS011;1280;49.760;9.664;2023-02-22T05:08:58;17.90;;;12.00;;
2538;SDS011;1280;49.760;9.664;2023-02-22T05:11:28;16.67;;;12.45;;
2538;SDS011;1280;49.760;9.664;2023-02-22T05:13:56;23.23;;;12.00;;
2538;SDS011;1280;49.760;9.664;2023-02-22T05:16:24;21.02;;;12.25;;
2538;SDS011;1280;49.760;9.664;2023-02-22T05:18:51;14.20;;;11.15;;
2538;SDS011;1280;49.760;9.664;2023-02-22T05:21:19;18.83;;;12.63;;
2538;SDS011;1280;49.760;9.664;2023-02-22T05:23:48;16.80;;;12.02;;
2538;SDS011;1280;49.760;9.664;2023-02-22T05:26:16;17.33;;;12.38;;
2538;SDS011;1280;49.760;9.664;2023-02-22T05:28:46;17.85;;;12.82;;
2538;SDS011;1280;49.760;9.664;2023-02-22T05:31:14;16.23;;;11.43;;
2538;SDS011;1280;49.760;9.664;2023-02-22T05:33:42;19.23;;;12.95;;
2538;SDS011;1280;49.760;9.664;2023-02-22T05:36:10;16.90;;;11.77;;
2538;SDS011;1280;49.760;9.664;2023-02-22T05:38:39;26.08;;;12.18;;
2538;SDS011;1280;49.760;9.664;2023-02-22T05:41:09;17.40;;;12.45;;
2538;SDS011;1280;49.760;9.664;2023-02-22T05:43:38;18.85;;;12.82;;
2538;SDS011;1280;49.760;9.664;2023-02-22T05:46:07;15.50;;;10.75;;
2538;SDS011;1280;49.760;9.664;2023-02-22T05:48:35;21.58;;;14.30;;
2538;SDS011;1280;49.760;9.664;2023-02-22T05:51:03;18.35;;;12.90;;
2538;SDS011;1280;49.760;9.664;2023-02-22T05:53:32;25.70;;;11.82;;
2538;SDS011;1280;49.760;9.664;2023-02-22T05:56:00;19.85;;;13.02;;
2538;SDS011;1280;49.760;9.664;2023-02-22T05:58:28;16.98;;;12.50;;
2538;SDS011;1280;49.760;9.664;2023-02-22T06:00:56;19.58;;;12.95;;
2538;SDS011;1280;49.760;9.664;2023-02-22T06:03:28;45.08;;;14.40;;
2538;SDS011;1280;49.760;9.664;2023-02-22T06:05:56;41.22;;;15.80;;
2538;SDS011;1280;49.760;9.664;2023-02-22T06:08:24;35.97;;;18.73;;
2538;SDS011;1280;49.760;9.664;2023-02-22T06:10:52;42.83;;;19.63;;
2538;SDS011;1280;49.760;9.664;2023-02-22T06:13:20;84.22;;;21.15;;
2538;SDS011;1280;49.760;9.664;2023-02-22T06:15:48;51.13;;;18.50;;
2538;SDS011;1280;49.760;9.664;2023-02-22T06:18:16;24.25;;;15.77;;
2538;SDS011;1280;49.760;9.664;2023-02-22T06:20:45;46.65;;;14.25;;
2538;SDS011;1280;49.760;9.664;2023-02-22T06:23:14;41.30;;;14.43;;
2538;SDS011;1280;49.760;9.664;2023-02-22T06:25:42;23.20;;;14.77;;
2538;SDS011;1280;49.760;9.664;2023-02-22T06:28:11;59.17;;;20.55;;
2538;SDS011;1280;49.760;9.664;2023-02-22T06:30:39;46.05;;;20.90;;
2538;SDS011;1280;49.760;9.664;2023-02-22T06:33:08;29.33;;;17.52;;
2538;SDS011;1280;49.760;9.664;2023-02-22T06:35:36;21.80;;;14.75;;
2538;SDS011;1280;49.760;9.664;2023-02-22T06:38:05;31.63;;;14.55;;
2538;SDS011;1280;49.760;9.664;2023-02-22T06:40:33;61.30;;;14.85;;
2538;SDS011;1280;49.760;9.664;2023-02-22T06:43:02;99.82;;;23.15;;
2538;SDS011;1280;49.760;9.664;2023-02-22T06:45:30;38.50;;;16.77;;
2538;SDS011;1280;49.760;9.664;2023-02-22T06:47:58;39.50;;;15.57;;
2538;SDS011;1280;49.760;9.664;2023-02-22T06:50:26;25.00;;;14.35;;
2538;SDS011;1280;49.760;9.664;2023-02-22T06:52:55;32.80;;;14.75;;
2538;SDS011;1280;49.760;9.664;2023-02-22T06:55:26;93.05;;;16.83;;
2538;SDS011;1280;49.760;9.664;2023-02-22T06:57:56;102.70;;;32.92;;
2538;SDS011;1280;49.760;9.664;2023-02-22T07:00:24;100.35;;;21.52;;
2538;SDS011;1280;49.760;9.664;2023-02-22T07:02:54;282.25;;;72.80;;
2538;SDS011;1280;49.760;9.664;2023-02-22T07:05:24;118.93;;;31.73;;
2538;SDS011;1280;49.760;9.664;2023-02-22T07:07:59;141.27;;;23.65;;
2538;SDS011;1280;49.760;9.664;2023-02-22T07:10:31;61.92;;;18.42;;
2538;SDS011;1280;49.760;9.664;2023-02-22T07:13:00;70.32;;;19.40;;
2538;SDS011;1280;49.760;9.664;2023-02-22T07:15:30;83.88;;;21.70;;
2538;SDS011;1280;49.760;9.664;2023-02-22T07:17:59;36.28;;;19.33;;
2538;SDS011;1280;49.760;9.664;2023-02-22T07:20:28;79.78;;;19.70;;
2538;SDS011;1280;49.760;9.664;2023-02-22T07:22:57;132.00;;;49.67;;
2538;SDS011;1280;49.760;9.664;2023-02-22T07:25:25;107.40;;;38.72;;
2538;SDS011;1280;49.760;9.664;2023-02-22T07:27:54;73.45;;;29.98;;
2538;SDS011;1280;49.760;9.664;2023-02-22T07:30:23;71.97;;;25.25;;
2538;SDS011;1280;49.760;9.664;2023-02-22T07:35:35;71.25;;;23.73;;
2538;SDS011;1280;49.760;9.664;2023-02-22T07:38:05;75.35;;;22.17;;
2538;SDS011;1280;49.760;9.664;2023-02-22T07:40:34;33.70;;;19.63;;
2538;SDS011;1280;49.760;9.664;2023-02-22T07:43:04;62.47;;;19.60;;
2538;SDS011;1280;49.760;9.664;2023-02-22T07:45:40;50.72;;;20.50;;
2538;SDS011;1280;49.760;9.664;2023-02-22T07:48:08;36.80;;;18.20;;
2538;SDS011;1280;49.760;9.664;2023-02-22T07:50:37;39.80;;;17.30;;
2538;SDS011;1280;49.760;9.664;2023-02-22T07:53:07;35.70;;;17.38;;
2538;SDS011;1280;49.760;9.664;2023-02-22T07:55:39;24.77;;;15.02;;
2538;SDS011;1280;49.760;9.664;2023-02-22T07:58:12;36.78;;;15.80;;
2538;SDS011;1280;49.760;9.664;2023-02-22T08:00:41;24.60;;;15.02;;
2538;SDS011;1280;49.760;9.664;2023-02-22T08:03:10;31.17;;;15.65;;
2538;SDS011;1280;49.760;9.664;2023-02-22T08:05:43;31.10;;;16.45;;
2538;SDS011;1280;49.760;9.664;2023-02-22T08:08:12;42.80;;;16.88;;
2538;SDS011;1280;49.760;9.664;2023-02-22T08:10:45;37.28;;;17.92;;
2538;SDS011;1280;49.760;9.664;2023-02-22T08:13:15;54.03;;;18.63;;
2538;SDS011;1280;49.760;9.664;2023-02-22T08:15:44;28.95;;;18.38;;
2538;SDS011;1280;49.760;9.664;2023-02-22T08:18:13;27.52;;;17.00;;
2538;SDS011;1280;49.760;9.664;2023-02-22T08:20:43;25.38;;;15.70;;
2538;SDS011;1280;49.760;9.664;2023-02-22T08:23:12;25.40;;;15.30;;
2538;SDS011;1280;49.760;9.664;2023-02-22T08:25:42;35.38;;;15.25;;
2538;SDS011;1280;49.760;9.664;2023-02-22T08:28:10;30.17;;;17.45;;
2538;SDS011;1280;49.760;9.664;2023-02-22T08:30:41;51.28;;;24.27;;
2538;SDS011;1280;49.760;9.664;2023-02-22T08:33:10;45.97;;;19.13;;
2538;SDS011;1280;49.760;9.664;2023-02-22T08:35:41;35.75;;;16.80;;
2538;SDS011;1280;49.760;9.664;2023-02-22T08:38:14;35.38;;;18.60;;
2538;SDS011;1280;49.760;9.664;2023-02-22T08:40:43;31.33;;;19.25;;
2538;SDS011;1280;49.760;9.664;2023-02-22T08:43:11;25.13;;;16.23;;
2538;SDS011;1280;49.760;9.664;2023-02-22T08:45:39;27.77;;;17.70;;
2538;SDS011;1280;49.760;9.664;2023-02-22T08:48:09;47.05;;;23.45;;
2538;SDS011;1280;49.760;9.664;2023-02-22T08:50:37;49.28;;;18.08;;
2538;SDS011;1280;49.760;9.664;2023-02-22T08:53:07;81.95;;;33.08;;
2538;SDS011;1280;49.760;9.664;2023-02-22T08:55:37;42.55;;;25.08;;
2538;SDS011;1280;49.760;9.664;2023-02-22T08:58:05;32.33;;;17.45;;
2538;SDS011;1280;49.760;9.664;2023-02-22T09:00:36;27.85;;;16.60;;
2538;SDS011;1280;49.760;9.664;2023-02-22T09:03:06;31.70;;;16.95;;
2538;SDS011;1280;49.760;9.664;2023-02-22T09:05:38;50.22;;;17.42;;
2538;SDS011;1280;49.760;9.664;2023-02-22T09:08:07;23.95;;;16.00;;
2538;SDS011;1280;49.760;9.664;2023-02-22T09:10:36;23.25;;;16.27;;
2538;SDS011;1280;49.760;9.664;2023-02-22T09:13:05;29.48;;;18.23;;
2538;SDS011;1280;49.760;9.664;2023-02-22T09:15:33;28.30;;;19.05;;
2538;SDS011;1280;49.760;9.664;2023-02-22T09:18:02;34.63;;;18.02;;
2538;SDS011;1280;49.760;9.664;2023-02-22T09:20:32;39.65;;;18.67;;
2538;SDS011;1280;49.760;9.664;2023-02-22T09:23:03;30.60;;;18.75;;
2538;SDS011;1280;49.760;9.664;2023-02-22T09:25:32;33.17;;;17.83;;
2538;SDS011;1280;49.760;9.664;2023-02-22T09:28:01;30.10;;;18.58;;
2538;SDS011;1280;49.760;9.664;2023-02-22T09:30:30;34.67;;;18.75;;
2538;SDS011;1280;49.760;9.664;2023-02-22T09:33:00;37.58;;;19.95;;
2538;SDS011;1280;49.760;9.664;2023-02-22T09:35:29;27.67;;;18.23;;
2538;SDS011;1280;49.760;9.664;2023-02-22T09:38:04;32.72;;;18.02;;
2538;SDS011;1280;49.760;9.664;2023-02-22T09:40:33;26.95;;;18.33;;
2538;SDS011;1280;49.760;9.664;2023-02-22T09:46:12;32.38;;;21.63;;
2538;SDS011;1280;49.760;9.664;2023-02-22T09:48:54;32.67;;;21.50;;
2538;SDS011;1280;49.760;9.664;2023-02-22T09:51:27;32.45;;;21.42;;
2538;SDS011;1280;49.760;9.664;2023-02-22T09:54:02;34.22;;;22.85;;
2538;SDS011;1280;49.760;9.664;2023-02-22T09:56:32;33.45;;;20.23;;
2538;SDS011;1280;49.760;9.664;2023-02-22T09:59:02;27.88;;;18.88;;
2538;SDS011;1280;49.760;9.664;2023-02-22T10:01:37;26.50;;;17.90;;
2538;SDS011;1280;49.760;9.664;2023-02-22T10:04:10;30.58;;;19.00;;
2538;SDS011;1280;49.760;9.664;2023-02-22T10:06:48;25.23;;;17.27;;
2538;SDS011;1280;49.760;9.664;2023-02-22T10:09:28;28.53;;;18.80;;
2538;SDS011;1280;49.760;9.664;2023-02-22T10:11:58;34.03;;;18.90;;
2538;SDS011;1280;49.760;9.664;2023-02-22T10:14:50;30.30;;;19.35;;
2538;SDS011;1280;49.760;9.664;2023-02-22T10:17:32;27.10;;;17.97;;
2538;SDS011;1280;49.760;9.664;2023-02-22T10:20:11;24.57;;;17.37;;
2538;SDS011;1280;49.760;9.664;2023-02-22T10:22:51;21.13;;;15.50;;
2538;SDS011;1280;49.760;9.664;2023-02-22T10:25:27;24.70;;;17.80;;
2538;SDS011;1280;49.760;9.664;2023-02-22T10:28:02;25.13;;;17.77;;
2538;SDS011;1280;49.760;9.664;2023-02-22T10:30:38;26.30;;;18.30;;
2538;SDS011;1280;49.760;9.664;2023-02-22T10:33:11;25.87;;;18.00;;
2538;SDS011;1280;49.760;9.664;2023-02-22T10:35:43;26.87;;;18.93;;
2538;SDS011;1280;49.760;9.664;2023-02-22T10:38:13;26.00;;;19.70;;
2538;SDS011;1280;49.760;9.664;2023-02-22T10:40:48;23.60;;;17.73;;
2538;SDS011;1280;49.760;9.664;2023-02-22T10:43:20;26.30;;;18.53;;
2538;SDS011;1280;49.760;9.664;2023-02-22T10:45:49;27.77;;;18.57;;
2538;SDS011;1280;49.760;9.664;2023-02-22T10:48:21;28.57;;;17.60;;
2538;SDS011;1280;49.760;9.664;2023-02-22T10:50:53;29.17;;;19.60;;
2538;SDS011;1280;49.760;9.664;2023-02-22T10:53:25;27.60;;;18.63;;
2538;SDS011;1280;49.760;9.664;2023-02-22T10:56:08;26.40;;;17.93;;
2538;SDS011;1280;49.760;9.664;2023-02-22T10:58:45;27.67;;;18.47;;
2538;SDS011;1280;49.760;9.664;2023-02-22T11:01:19;29.53;;;19.00;;
2538;SDS011;1280;49.760;9.664;2023-02-22T11:04:00;27.17;;;18.53;;
2538;SDS011;1280;49.760;9.664;2023-02-22T11:06:31;27.83;;;19.43;;
2538;SDS011;1280;49.760;9.664;2023-02-22T11:09:04;28.20;;;20.37;;
2538;SDS011;1280;49.760;9.664;2023-02-22T11:11:38;27.27;;;18.83;;
2538;SDS011;1280;49.760;9.664;2023-02-22T11:14:09;26.90;;;18.33;;
2538;SDS011;1280;49.760;9.664;2023-02-22T11:16:39;26.47;;;19.23;;
2538;SDS011;1280;49.760;9.664;2023-02-22T11:19:11;27.27;;;19.40;;
2538;SDS011;1280;49.760;9.664;2023-02-22T11:21:45;30.23;;;21.17;;
2538;SDS011;1280;49.760;9.664;2023-02-22T11:24:17;27.80;;;19.87;;
2538;SDS011;1280;49.760;9.664;2023-02-22T11:26:52;28.37;;;20.30;;
2538;SDS011;1280;49.760;9.664;2023-02-22T11:29:24;25.70;;;18.13;;
2538;SDS011;1280;49.760;9.664;2023-02-22T11:31:57;28.87;;;20.10;;
2538;SDS011;1280;49.760;9.664;2023-02-22T11:34:30;27.07;;;18.13;;
2538;SDS011;1280;49.760;9.664;2023-02-22T11:37:15;26.03;;;19.03;;
2538;SDS011;1280;49.760;9.664;2023-02-22T11:39:44;25.73;;;18.57;;
2538;SDS011;1280;49.760;9.664;2023-02-22T11:42:17;25.50;;;18.73;;
2538;SDS011;1280;49.760;9.664;2023-02-22T11:44:49;25.50;;;17.07;;
2538;SDS011;1280;49.760;9.664;2023-02-22T11:47:44;23.60;;;17.20;;
2538;SDS011;1280;49.760;9.664;2023-02-22T11:50:27;21.87;;;15.83;;
2538;SDS011;1280;49.760;9.664;2023-02-22T11:53:02;27.23;;;15.13;;
2538;SDS011;1280;49.760;9.664;2023-02-22T11:55:49;20.90;;;15.30;;
2538;SDS011;1280;49.760;9.664;2023-02-22T11:58:32;20.77;;;15.40;;
2538;SDS011;1280;49.760;9.664;2023-02-22T12:01:09;18.50;;;14.83;;
2538;SDS011;1280;49.760;9.664;2023-02-22T12:04:07;21.03;;;15.43;;
2538;SDS011;1280;49.760;9.664;2023-02-22T12:06:51;20.00;;;14.20;;
2538;SDS011;1280;49.760;9.664;2023-02-22T12:09:31;20.47;;;15.57;;
2538;SDS011;1280;49.760;9.664;2023-02-22T12:12:07;23.30;;;16.43;;
2538;SDS011;1280;49.760;9.664;2023-02-22T12:14:46;20.57;;;15.20;;
2538;SDS011;1280;49.760;9.664;2023-02-22T12:17:23;20.53;;;15.80;;
2538;SDS011;1280;49.760;9.664;2023-02-22T12:20:00;20.63;;;14.60;;
2538;SDS011;1280;49.760;9.664;2023-02-22T12:22:36;24.60;;;14.73;;
2538;SDS011;1280;49.760;9.664;2023-02-22T12:25:14;17.77;;;13.90;;
2538;SDS011;1280;49.760;9.664;2023-02-22T12:27:46;18.80;;;14.50;;
2538;SDS011;1280;49.760;9.664;2023-02-22T12:30:20;19.30;;;14.40;;
2538;SDS011;1280;49.760;9.664;2023-02-22T12:32:51;21.03;;;15.50;;
2538;SDS011;1280;49.760;9.664;2023-02-22T12:35:22;21.10;;;14.67;;
2538;SDS011;1280;49.760;9.664;2023-02-22T12:37:54;21.60;;;15.10;;
2538;SDS011;1280;49.760;9.664;2023-02-22T12:40:30;20.80;;;14.63;;
2538;SDS011;1280;49.760;9.664;2023-02-22T12:43:03;19.53;;;14.80;;
2538;SDS011;1280;49.760;9.664;2023-02-22T12:45:39;21.20;;;14.40;;
2538;SDS011;1280;49.760;9.664;2023-02-22T12:48:23;16.93;;;13.10;;
2538;SDS011;1280;49.760;9.664;2023-02-22T12:50:58;18.30;;;13.53;;
2538;SDS011;1280;49.760;9.664;2023-02-22T12:53:34;17.60;;;13.70;;
2538;SDS011;1280;49.760;9.664;2023-02-22T12:56:09;19.43;;;14.57;;
2538;SDS011;1280;49.760;9.664;2023-02-22T12:58:48;20.00;;;14.43;;
2538;SDS011;1280;49.760;9.664;2023-02-22T13:01:22;18.17;;;13.00;;
2538;SDS011;1280;49.760;9.664;2023-02-22T13:03:55;21.37;;;14.70;;
2538;SDS011;1280;49.760;9.664;2023-02-22T13:06:33;16.23;;;12.67;;
2538;SDS011;1280;49.760;9.664;2023-02-22T13:09:14;20.40;;;16.03;;
2538;SDS011;1280;49.760;9.664;2023-02-22T13:11:54;19.27;;;14.07;;
2538;SDS011;1280;49.760;9.664;2023-02-22T13:14:32;19.23;;;14.40;;
2538;SDS011;1280;49.760;9.664;2023-02-22T13:17:12;18.73;;;14.77;;
2538;SDS011;1280;49.760;9.664;2023-02-22T13:19:49;18.47;;;13.63;;
2538;SDS011;1280;49.760;9.664;2023-02-22T13:22:26;17.37;;;13.47;;
2538;SDS011;1280;49.760;9.664;2023-02-22T13:25:02;17.70;;;13.40;;
2538;SDS011;1280;49.760;9.664;2023-02-22T13:27:37;18.13;;;14.57;;
2538;SDS011;1280;49.760;9.664;2023-02-22T13:30:14;19.90;;;13.80;;
2538;SDS011;1280;49.760;9.664;2023-02-22T13:32:52;19.03;;;14.43;;
2538;SDS011;1280;49.760;9.664;2023-02-22T13:35:30;18.87;;;14.10;;
2538;SDS011;1280;49.760;9.664;2023-02-22T13:38:16;17.67;;;13.43;;
2538;SDS011;1280;49.760;9.664;2023-02-22T13:41:06;18.10;;;13.60;;
2538;SDS011;1280;49.760;9.664;2023-02-22T13:43:47;19.90;;;14.80;;
2538;SDS011;1280;49.760;9.664;2023-02-22T13:46:57;18.30;;;12.70;;
2538;SDS011;1280;49.760;9.664;2023-02-22T13:49:55;19.10;;;13.13;;
2538;SDS011;1280;49.760;9.664;2023-02-22T13:52:43;17.93;;;13.93;;
2538;SDS011;1280;49.760;9.664;2023-02-22T13:55:18;17.60;;;13.00;;
2538;SDS011;1280;49.760;9.664;2023-02-22T13:57:48;17.70;;;13.80;;
2538;SDS011;1280;49.760;9.664;2023-02-22T14:00:38;16.33;;;12.97;;
2538;SDS011;1280;49.760;9.664;2023-02-22T14:03:29;21.53;;;14.00;;
2538;SDS011;1280;49.760;9.664;2023-02-22T14:06:04;16.33;;;13.00;;
2538;SDS011;1280;49.760;9.664;2023-02-22T14:08:45;18.17;;;13.43;;
2538;SDS011;1280;49.760;9.664;2023-02-22T14:14:20;18.33;;;12.37;;
2538;SDS011;1280;49.760;9.664;2023-02-22T14:20:03;15.60;;;12.53;;
2538;SDS011;1280;49.760;9.664;2023-02-22T14:22:48;18.60;;;14.17;;
2538;SDS011;1280;49.760;9.664;2023-02-22T14:25:30;19.37;;;13.17;;
2538;SDS011;1280;49.760;9.664;2023-02-22T14:31:05;16.80;;;13.20;;
2538;SDS011;1280;49.760;9.664;2023-02-22T14:33:52;17.60;;;13.17;;
2538;SDS011;1280;49.760;9.664;2023-02-22T14:36:26;18.07;;;13.37;;
2538;SDS011;1280;49.760;9.664;2023-02-22T14:39:07;14.93;;;12.50;;
2538;SDS011;1280;49.760;9.664;2023-02-22T14:41:50;18.90;;;13.97;;
2538;SDS011;1280;49.760;9.664;2023-02-22T14:44:23;18.10;;;12.70;;
2538;SDS011;1280;49.760;9.664;2023-02-22T14:46:54;18.27;;;12.90;;
2538;SDS011;1280;49.760;9.664;2023-02-22T14:49:30;18.30;;;13.30;;
2538;SDS011;1280;49.760;9.664;2023-02-22T14:52:04;17.03;;;12.43;;
2538;SDS011;1280;49.760;9.664;2023-02-22T14:54:38;17.53;;;12.37;;
2538;SDS011;1280;49.760;9.664;2023-02-22T14:57:19;17.87;;;13.63;;
2538;SDS011;1280;49.760;9.664;2023-02-22T14:59:51;17.87;;;12.83;;
2538;SDS011;1280;49.760;9.664;2023-02-22T15:02:36;18.07;;;13.20;;
2538;SDS011;1280;49.760;9.664;2023-02-22T15:05:06;18.17;;;12.67;;
2538;SDS011;1280;49.760;9.664;2023-02-22T15:07:45;16.40;;;12.83;;
2538;SDS011;1280;49.760;9.664;2023-02-22T15:10:20;18.60;;;12.30;;
2538;SDS011;1280;49.760;9.664;2023-02-22T15:12:52;16.93;;;13.00;;
2538;SDS011;1280;49.760;9.664;2023-02-22T15:15:34;16.73;;;11.63;;
2538;SDS011;1280;49.760;9.664;2023-02-22T15:18:10;19.60;;;13.07;;
2538;SDS011;1280;49.760;9.664;2023-02-22T15:20:44;16.97;;;11.80;;
2538;SDS011;1280;49.760;9.664;2023-02-22T15:23:13;16.67;;;13.00;;
2538;SDS011;1280;49.760;9.664;2023-02-22T15:25:47;15.40;;;11.90;;
2538;SDS011;1280;49.760;9.664;2023-02-22T15:28:17;17.73;;;12.03;;
2538;SDS011;1280;49.760;9.664;2023-02-22T15:30:45;17.77;;;12.30;;
2538;SDS011;1280;49.760;9.664;2023-02-22T15:33:14;14.23;;;11.17;;
2538;SDS011;1280;49.760;9.664;2023-02-22T15:35:53;17.43;;;13.80;;
2538;SDS011;1280;49.760;9.664;2023-02-22T15:38:26;16.93;;;12.43;;
2538;SDS011;1280;49.760;9.664;2023-02-22T15:41:02;18.00;;;12.90;;
2538;SDS011;1280;49.760;9.664;2023-02-22T15:43:33;15.47;;;11.83;;